createdAt,value
2022-09-24T00:01:39.785Z,64.60
2022-09-24T00:04:11.416Z,64.80
2022-09-24T00:06:45.147Z,64.90
2022-09-24T00:09:14.840Z,65.00
2022-09-24T00:11:45.859Z,65.00
2022-09-24T00:14:13.912Z,65.10
2022-09-24T00:16:42.575Z,65.20
2022-09-24T00:19:12.508Z,65.30
2022-09-24T00:21:41.002Z,65.40
2022-09-24T00:24:33.511Z,65.40
2022-09-24T00:27:03.066Z,65.50
2022-09-24T00:29:33.838Z,65.50
2022-09-24T00:32:01.484Z,65.80
2022-09-24T00:34:28.824Z,65.90
2022-09-24T00:36:55.706Z,66.00
2022-09-24T00:39:22.690Z,66.20
2022-09-24T00:41:50.225Z,66.30
2022-09-24T00:44:45.008Z,66.40
2022-09-24T00:47:17.430Z,66.80
2022-09-24T00:49:48.026Z,66.60
2022-09-24T00:52:16.848Z,66.70
2022-09-24T00:54:46.165Z,66.70
2022-09-24T00:57:13.917Z,67.00
2022-09-24T00:59:43.113Z,67.00
2022-09-24T01:02:10.087Z,67.10
2022-09-24T01:04:37.147Z,67.20
2022-09-24T01:07:04.258Z,67.40
2022-09-24T01:09:31.428Z,67.60
2022-09-24T01:12:20.553Z,67.70
2022-09-24T01:15:05.685Z,67.80
2022-09-24T01:18:02.231Z,67.80
2022-09-24T01:20:57.480Z,67.90
2022-09-24T01:23:52.460Z,68.10
2022-09-24T01:27:01.397Z,68.00
2022-09-24T01:29:52.549Z,68.30
2022-09-24T01:32:49.708Z,68.30
2022-09-24T01:35:24.282Z,68.30
2022-09-24T01:38:09.960Z,68.10
2022-09-24T01:40:38.903Z,68.40
2022-09-24T01:43:08.951Z,68.20
2022-09-24T01:45:38.734Z,68.40
2022-09-24T01:48:07.268Z,68.60
2022-09-24T01:51:06.012Z,68.70
2022-09-24T01:53:42.681Z,68.80
2022-09-24T01:56:41.248Z,68.70
2022-09-24T01:59:18.171Z,68.80
2022-09-24T02:01:55.447Z,68.30
2022-09-24T02:04:26.005Z,68.00
2022-09-24T02:07:01.961Z,68.10
2022-09-24T02:09:36.980Z,68.40
2022-09-24T02:12:17.627Z,68.50
2022-09-24T02:14:50.776Z,68.70
2022-09-24T02:17:20.921Z,68.60
2022-09-24T02:19:50.214Z,68.60
2022-09-24T02:22:17.891Z,68.80
2022-09-24T02:24:58.424Z,68.70
2022-09-24T02:27:28.742Z,68.80
2022-09-24T02:29:59.892Z,68.70
2022-09-24T02:32:31.239Z,68.80
2022-09-24T02:35:06.123Z,68.90
2022-09-24T02:37:40.747Z,69.10
2022-09-24T02:40:12.056Z,68.90
2022-09-24T02:42:41.204Z,68.80
2022-09-24T02:45:09.804Z,68.80
2022-09-24T02:47:37.013Z,68.70
2022-09-24T02:50:04.856Z,68.80
2022-09-24T02:52:32.011Z,68.90
2022-09-24T02:54:59.016Z,68.80
2022-09-24T02:57:25.900Z,68.80
2022-09-24T02:59:52.883Z,69.50
2022-09-24T03:02:19.819Z,68.60
2022-09-24T03:04:47.240Z,68.60
2022-09-24T03:07:14.994Z,68.60
2022-09-24T03:09:42.345Z,68.70
2022-09-24T03:12:09.585Z,68.60
2022-09-24T03:14:36.470Z,68.60
2022-09-24T03:17:03.477Z,68.60
2022-09-24T03:19:30.439Z,68.50
2022-09-24T03:21:57.569Z,68.50
2022-09-24T03:24:24.950Z,68.50
2022-09-24T03:26:52.087Z,68.50
2022-09-24T03:29:39.038Z,68.30
2022-09-24T03:32:06.113Z,68.50
2022-09-24T03:34:33.110Z,68.20
2022-09-24T03:37:00.067Z,68.10
2022-09-24T03:39:27.626Z,68.00
2022-09-24T03:41:54.402Z,68.10
2022-09-24T03:44:21.523Z,68.20
2022-09-24T03:46:50.086Z,68.20
2022-09-24T03:49:17.526Z,68.20
2022-09-24T03:51:44.574Z,68.10
2022-09-24T03:54:12.540Z,68.10
2022-09-24T03:56:39.656Z,68.00
2022-09-24T03:59:06.949Z,68.00
2022-09-24T04:01:37.142Z,68.10
2022-09-24T04:04:05.169Z,68.10
2022-09-24T04:06:32.057Z,68.20
2022-09-24T04:09:00.288Z,68.20
2022-09-24T04:11:27.501Z,68.40
2022-09-24T04:13:54.398Z,68.40
2022-09-24T04:16:21.787Z,68.40
2022-09-24T04:18:48.881Z,68.60
2022-09-24T04:21:15.865Z,68.70
2022-09-24T04:23:43.179Z,68.80
2022-09-24T04:26:10.354Z,68.90
2022-09-24T04:28:37.368Z,68.90
2022-09-24T04:31:05.159Z,68.80
2022-09-24T04:33:32.129Z,68.90
2022-09-24T04:35:59.382Z,69.00
2022-09-24T04:38:26.335Z,69.00
2022-09-24T04:40:53.286Z,68.90
2022-09-24T04:43:20.133Z,68.90
2022-09-24T04:45:47.393Z,69.00
2022-09-24T04:48:14.467Z,69.70
2022-09-24T04:50:45.909Z,69.10
2022-09-24T04:53:14.106Z,69.10
2022-09-24T04:55:41.908Z,69.10
2022-09-24T04:58:09.758Z,69.10
2022-09-24T05:00:36.831Z,69.10
2022-09-24T05:03:04.237Z,69.20
2022-09-24T05:05:33.477Z,69.20
2022-09-24T05:08:01.509Z,69.40
2022-09-24T05:10:31.298Z,69.50
2022-09-24T05:12:58.441Z,69.50
2022-09-24T05:15:25.326Z,69.40
2022-09-24T05:17:52.541Z,69.40
2022-09-24T05:20:19.404Z,69.30
2022-09-24T05:22:49.437Z,69.40
2022-09-24T05:25:20.427Z,69.30
2022-09-24T05:27:50.201Z,69.40
2022-09-24T05:30:19.351Z,69.40
2022-09-24T05:32:49.577Z,69.40
2022-09-24T05:35:16.575Z,69.40
2022-09-24T05:37:44.051Z,69.50
2022-09-24T05:40:29.787Z,69.40
2022-09-24T05:43:02.591Z,69.40
2022-09-24T05:45:31.477Z,69.30
2022-09-24T05:48:00.133Z,70.20
2022-09-24T05:50:27.748Z,69.50
2022-09-24T05:52:56.373Z,69.40
2022-09-24T05:55:23.153Z,69.30
2022-09-24T05:57:50.193Z,69.20
2022-09-24T06:00:17.082Z,69.00
2022-09-24T06:02:44.499Z,68.90
2022-09-24T06:05:12.592Z,68.80
2022-09-24T06:07:39.648Z,68.60
2022-09-24T06:10:07.466Z,68.40
2022-09-24T06:12:35.147Z,68.20
2022-09-24T06:15:02.744Z,68.20
2022-09-24T06:17:30.218Z,68.10
2022-09-24T06:19:58.069Z,68.20
2022-09-24T06:22:28.329Z,68.30
2022-09-24T06:24:56.052Z,68.30
2022-09-24T06:27:22.902Z,68.10
2022-09-24T06:29:49.932Z,68.10
2022-09-24T06:32:18.831Z,67.90
2022-09-24T06:34:45.748Z,67.90
2022-09-24T06:37:12.709Z,67.90
2022-09-24T06:39:39.765Z,67.70
2022-09-24T06:42:07.260Z,67.50
2022-09-24T06:44:35.447Z,67.40
2022-09-24T06:47:02.702Z,67.20
2022-09-24T06:49:33.724Z,67.20
2022-09-24T06:52:01.489Z,67.20
2022-09-24T06:54:30.430Z,67.20
2022-09-24T06:56:57.253Z,66.90
2022-09-24T06:59:24.234Z,66.60
2022-09-24T07:01:51.065Z,67.30
2022-09-24T07:04:18.032Z,66.40
2022-09-24T07:07:03.331Z,66.00
2022-09-24T07:09:30.375Z,65.60
2022-09-24T07:11:58.855Z,65.30
2022-09-24T07:14:25.873Z,65.00
2022-09-24T07:16:53.885Z,64.80
2022-09-24T07:19:21.163Z,64.70
2022-09-24T07:21:48.049Z,64.40
2022-09-24T07:24:15.067Z,64.40
2022-09-24T07:26:42.334Z,64.40
2022-09-24T07:29:09.354Z,64.40
2022-09-24T07:31:36.760Z,64.40
2022-09-24T07:34:03.632Z,64.30
2022-09-24T07:36:31.944Z,64.40
2022-09-24T07:38:58.817Z,64.40
2022-09-24T07:41:25.840Z,64.30
2022-09-24T07:43:55.610Z,64.10
2022-09-24T07:46:22.545Z,64.00
2022-09-24T07:49:14.857Z,63.90
2022-09-24T07:51:42.498Z,63.70
2022-09-24T07:54:13.859Z,63.30
2022-09-24T07:56:44.265Z,63.00
2022-09-24T07:59:11.162Z,62.80
2022-09-24T08:01:38.363Z,62.50
2022-09-24T08:04:06.095Z,62.30
2022-09-24T08:06:39.554Z,63.00
2022-09-24T08:09:08.345Z,61.90
2022-09-24T08:11:35.617Z,61.70
2022-09-24T08:14:02.845Z,61.40
2022-09-24T08:16:29.893Z,61.30
2022-09-24T08:18:56.844Z,61.10
2022-09-24T08:21:23.733Z,61.20
2022-09-24T08:23:50.634Z,60.90
2022-09-24T08:26:18.148Z,60.70
2022-09-24T08:28:45.050Z,60.20
2022-09-24T08:31:13.544Z,59.70
2022-09-24T08:33:40.931Z,59.20
2022-09-24T08:36:10.047Z,58.90
2022-09-24T08:38:37.142Z,58.60
2022-09-24T08:41:13.413Z,58.90
2022-09-24T08:44:00.751Z,57.60
2022-09-24T08:47:09.895Z,57.50
2022-09-24T08:49:50.922Z,56.80
2022-09-24T08:53:01.763Z,56.70
2022-09-24T08:55:39.685Z,56.30
2022-09-24T08:58:17.751Z,56.40
2022-09-24T09:01:13.156Z,56.40
2022-09-24T09:03:49.813Z,55.90
2022-09-24T09:06:57.733Z,55.70
2022-09-24T09:09:44.346Z,54.90
2022-09-24T09:12:27.914Z,54.80
2022-09-24T09:15:03.635Z,54.60
2022-09-24T09:17:56.591Z,54.40
2022-09-24T09:20:52.665Z,53.60
2022-09-24T09:23:40.049Z,53.40
2022-09-24T09:26:11.461Z,53.70
2022-09-24T09:28:38.674Z,53.20
2022-09-24T09:31:26.206Z,52.80
2022-09-24T09:34:29.700Z,51.50
2022-09-24T09:37:30.538Z,51.00
2022-09-24T09:40:22.564Z,50.60
2022-09-24T09:42:50.852Z,51.00
2022-09-24T09:45:42.187Z,50.80
2022-09-24T09:48:20.328Z,49.80
2022-09-24T09:50:50.894Z,49.90
2022-09-24T09:53:27.748Z,49.60
2022-09-24T09:56:07.380Z,49.00
2022-09-24T09:58:37.950Z,48.40
2022-09-24T10:01:12.696Z,48.50
2022-09-24T10:03:54.628Z,48.40
2022-09-24T10:06:35.220Z,48.70
2022-09-24T10:09:22.627Z,48.10
2022-09-24T10:11:49.625Z,47.60
2022-09-24T10:14:19.143Z,47.60
2022-09-24T10:16:54.140Z,46.90
2022-09-24T10:19:27.500Z,46.20
2022-09-24T10:21:58.277Z,45.60
2022-09-24T10:24:27.514Z,45.40
2022-09-24T10:26:55.693Z,45.20
2022-09-24T10:29:52.413Z,45.50
2022-09-24T10:32:23.694Z,44.80
2022-09-24T10:35:06.329Z,44.70
2022-09-24T10:37:33.200Z,43.90
2022-09-24T10:40:15.548Z,44.20
2022-09-24T10:42:42.695Z,43.70
2022-09-24T10:45:14.239Z,43.70
2022-09-24T10:48:05.622Z,43.40
2022-09-24T10:50:58.846Z,43.50
2022-09-24T10:54:13.237Z,44.20
2022-09-24T10:56:46.940Z,44.00
2022-09-24T10:59:28.256Z,43.60
2022-09-24T11:02:13.271Z,43.50
2022-09-24T11:04:58.982Z,43.20
2022-09-24T11:07:38.459Z,43.40
2022-09-24T11:10:23.101Z,43.20
2022-09-24T11:13:17.492Z,43.00
2022-09-24T11:16:25.796Z,42.80
2022-09-24T11:19:03.193Z,43.30
2022-09-24T11:21:53.417Z,43.40
2022-09-24T11:24:57.882Z,43.60
2022-09-24T11:27:49.673Z,43.30
2022-09-24T11:30:32.323Z,43.30
2022-09-24T11:33:22.807Z,43.70
2022-09-24T11:36:26.801Z,43.90
2022-09-24T11:39:24.815Z,43.60
2022-09-24T11:42:16.454Z,43.50
2022-09-24T11:45:19.703Z,43.40
2022-09-24T11:48:02.136Z,42.20
2022-09-24T11:51:21.013Z,42.10
2022-09-24T11:54:07.784Z,40.50
2022-09-24T11:56:41.298Z,39.50
2022-09-24T11:59:30.116Z,39.50
2022-09-24T12:02:25.233Z,38.80
2022-09-24T12:05:07.484Z,39.20
2022-09-24T12:07:46.061Z,39.20
2022-09-24T12:10:35.670Z,39.10
2022-09-24T12:13:16.008Z,38.80
2022-09-24T12:16:07.374Z,39.00
2022-09-24T12:18:50.488Z,39.30
2022-09-24T12:21:24.074Z,39.20
2022-09-24T12:24:02.245Z,39.40
2022-09-24T12:26:31.267Z,40.10
2022-09-24T12:29:54.233Z,40.60
2022-09-24T12:32:53.791Z,41.40
2022-09-24T12:36:02.133Z,42.00
2022-09-24T12:38:48.475Z,41.90
2022-09-24T12:41:38.315Z,42.70
2022-09-24T12:44:11.178Z,42.10
2022-09-24T12:46:47.207Z,41.80
2022-09-24T12:49:29.994Z,41.60
2022-09-24T12:52:05.238Z,42.40
2022-09-24T12:54:38.226Z,42.60
2022-09-24T12:57:26.383Z,43.00
2022-09-24T12:59:59.961Z,42.90
2022-09-24T13:02:45.156Z,42.40
2022-09-24T13:05:27.084Z,41.70
2022-09-24T13:08:22.865Z,41.40
2022-09-24T13:11:00.490Z,40.80
2022-09-24T13:13:31.717Z,40.50
2022-09-24T13:16:06.039Z,41.00
2022-09-24T13:18:36.296Z,41.50
2022-09-24T13:21:08.894Z,42.00
2022-09-24T13:23:38.678Z,42.70
2022-09-24T13:26:09.170Z,42.70
2022-09-24T13:28:48.823Z,42.40
2022-09-24T13:31:23.897Z,43.10
2022-09-24T13:34:20.077Z,42.50
2022-09-24T13:37:02.633Z,41.90
2022-09-24T13:39:50.360Z,41.60
2022-09-24T13:42:47.977Z,42.00
2022-09-24T13:45:20.948Z,42.30
2022-09-24T13:48:04.373Z,42.30
2022-09-24T13:50:36.581Z,41.90
2022-09-24T13:53:26.044Z,41.70
2022-09-24T13:55:59.719Z,41.50
2022-09-24T13:58:29.178Z,41.00
2022-09-24T14:00:59.747Z,41.00
2022-09-24T14:03:32.817Z,40.90
2022-09-24T14:06:13.729Z,40.80
2022-09-24T14:08:46.917Z,40.60
2022-09-24T14:11:18.888Z,40.50
2022-09-24T14:13:46.216Z,40.50
2022-09-24T14:16:26.454Z,40.60
2022-09-24T14:19:16.850Z,40.50
2022-09-24T14:21:50.421Z,41.30
2022-09-24T14:24:42.533Z,41.50
2022-09-24T14:27:15.554Z,42.00
2022-09-24T14:30:00.953Z,41.70
2022-09-24T14:33:03.679Z,41.50
2022-09-24T14:35:33.769Z,41.40
2022-09-24T14:38:12.697Z,40.90
2022-09-24T14:40:44.936Z,40.90
2022-09-24T14:46:37.393Z,41.00
2022-09-24T14:49:26.413Z,41.40
2022-09-24T14:52:03.927Z,41.80
2022-09-24T14:54:40.536Z,42.10
2022-09-24T14:57:11.370Z,42.30
2022-09-24T14:59:41.702Z,42.30
2022-09-24T15:02:31.080Z,42.40
2022-09-24T15:05:06.720Z,42.70
2022-09-24T15:07:35.637Z,43.70
2022-09-24T15:10:05.398Z,43.70
2022-09-24T15:12:37.579Z,44.20
2022-09-24T15:15:16.795Z,44.90
2022-09-24T15:17:47.437Z,45.20
2022-09-24T15:20:14.848Z,45.20
2022-09-24T15:22:41.652Z,45.30
2022-09-24T15:25:10.167Z,45.40
2022-09-24T15:27:42.452Z,45.60
2022-09-24T15:30:27.777Z,45.80
2022-09-24T15:32:55.054Z,46.40
2022-09-24T15:35:22.149Z,46.50
2022-09-24T15:37:49.580Z,47.10
2022-09-24T15:40:25.536Z,47.70
2022-09-24T15:42:52.999Z,48.20
2022-09-24T15:45:23.364Z,47.80
2022-09-24T15:47:51.548Z,48.20
2022-09-24T15:50:21.166Z,48.40
2022-09-24T15:52:53.939Z,48.60
2022-09-24T15:55:22.383Z,48.80
2022-09-24T15:57:49.502Z,48.80
2022-09-24T16:00:19.896Z,48.90
2022-09-24T16:02:52.307Z,49.20
2022-09-24T16:05:20.103Z,49.40
2022-09-24T16:07:47.519Z,49.40
2022-09-24T16:10:15.773Z,49.70
2022-09-24T16:12:43.467Z,49.80
2022-09-24T16:15:16.429Z,50.00
2022-09-24T16:17:43.625Z,50.20
2022-09-24T16:20:10.531Z,50.10
2022-09-24T16:22:37.847Z,50.20
2022-09-24T16:25:05.705Z,50.40
2022-09-24T16:27:34.403Z,50.60
2022-09-24T16:30:02.588Z,50.80
2022-09-24T16:32:29.805Z,51.20
2022-09-24T16:34:56.981Z,51.40
2022-09-24T16:37:25.167Z,51.60
2022-09-24T16:39:52.734Z,52.00
2022-09-24T16:42:21.617Z,52.10
2022-09-24T16:44:48.453Z,52.40
2022-09-24T16:47:17.525Z,53.10
2022-09-24T16:49:44.726Z,52.70
2022-09-24T16:52:11.568Z,53.00
2022-09-24T16:54:38.607Z,53.20
2022-09-24T16:57:06.239Z,53.40
2022-09-24T16:59:36.978Z,53.60
2022-09-24T17:02:04.037Z,53.80
2022-09-24T17:04:31.313Z,53.90
2022-09-24T17:06:59.362Z,54.10
2022-09-24T17:09:44.687Z,54.20
2022-09-24T17:12:11.843Z,54.20
2022-09-24T17:14:38.964Z,54.60
2022-09-24T17:17:06.647Z,54.60
2022-09-24T17:19:33.883Z,54.80
2022-09-24T17:22:00.732Z,55.10
2022-09-24T17:24:28.134Z,55.10
2022-09-24T17:26:56.532Z,55.30
2022-09-24T17:29:30.378Z,55.40
2022-09-24T17:31:59.135Z,55.50
2022-09-24T17:34:26.196Z,55.70
2022-09-24T17:36:53.070Z,55.80
2022-09-24T17:39:20.867Z,56.00
2022-09-24T17:41:47.657Z,56.20
2022-09-24T17:44:17.699Z,56.40
2022-09-24T17:46:44.779Z,56.60
2022-09-24T17:49:12.294Z,56.70
2022-09-24T17:51:39.352Z,56.90
2022-09-24T17:54:13.808Z,57.10
2022-09-24T17:56:41.712Z,57.40
2022-09-24T17:59:11.168Z,57.40
2022-09-24T18:01:40.741Z,57.50
2022-09-24T18:04:15.518Z,57.60
2022-09-24T18:06:45.061Z,57.70
2022-09-24T18:09:14.598Z,57.90
2022-09-24T18:11:52.374Z,58.00
2022-09-24T18:14:22.290Z,58.30
2022-09-24T18:16:50.238Z,58.10
2022-09-24T18:19:17.951Z,58.20
2022-09-24T18:21:46.752Z,58.30
2022-09-24T18:24:14.395Z,58.50
2022-09-24T18:26:41.507Z,58.60
2022-09-24T18:29:17.573Z,58.70
2022-09-24T18:31:45.273Z,59.10
2022-09-24T18:34:15.381Z,59.00
2022-09-24T18:36:44.848Z,59.10
2022-09-24T18:39:15.855Z,59.40
2022-09-24T18:41:44.841Z,59.50
2022-09-24T18:44:12.110Z,59.60
2022-09-24T18:46:39.436Z,59.70
2022-09-24T18:49:06.671Z,59.70
2022-09-24T18:51:37.004Z,59.80
2022-09-24T18:54:08.685Z,59.80
2022-09-24T18:56:36.370Z,59.90
2022-09-24T18:59:14.511Z,60.00
2022-09-24T19:01:42.942Z,60.00
2022-09-24T19:04:11.971Z,60.00
2022-09-24T19:06:42.179Z,60.20
2022-09-24T19:09:13.447Z,60.30
2022-09-24T19:11:42.196Z,60.30
2022-09-24T19:14:11.980Z,60.40
2022-09-24T19:16:39.785Z,60.50
2022-09-24T19:19:06.992Z,60.50
2022-09-24T19:21:34.265Z,60.40
2022-09-24T19:24:01.613Z,60.40
2022-09-24T19:26:31.991Z,60.50
2022-09-24T19:28:59.506Z,60.50
2022-09-24T19:31:32.925Z,60.50
2022-09-24T19:34:03.262Z,60.60
2022-09-24T19:36:31.089Z,60.60
2022-09-24T19:38:58.116Z,60.60
2022-09-24T19:41:26.566Z,60.60
2022-09-24T19:43:57.052Z,60.60
2022-09-24T19:46:27.032Z,60.60
2022-09-24T19:48:56.296Z,60.70
2022-09-24T19:51:30.166Z,60.70
2022-09-24T19:54:04.833Z,60.80
2022-09-24T19:56:32.047Z,61.00
2022-09-24T19:59:01.456Z,61.00
2022-09-24T20:01:31.725Z,61.20
2022-09-24T20:04:03.327Z,61.30
2022-09-24T20:06:33.639Z,61.50
2022-09-24T20:09:01.001Z,61.60
2022-09-24T20:11:29.515Z,61.70
2022-09-24T20:13:56.717Z,61.80
2022-09-24T20:19:17.832Z,62.10
2022-09-24T20:21:44.974Z,62.10
2022-09-24T20:24:12.499Z,62.10
2022-09-24T20:26:57.862Z,62.00
2022-09-24T20:29:24.914Z,62.00
2022-09-24T20:31:55.309Z,62.00
2022-09-24T20:34:36.172Z,62.30
2022-09-24T20:37:06.352Z,62.50
2022-09-24T20:39:33.358Z,62.30
2022-09-24T20:42:06.062Z,62.20
2022-09-24T20:44:37.218Z,62.30
2022-09-24T20:47:05.305Z,62.30
2022-09-24T20:49:33.176Z,62.30
2022-09-24T20:52:02.928Z,62.30
2022-09-24T20:54:29.794Z,62.30
2022-09-24T20:56:57.791Z,62.40
2022-09-24T20:59:26.850Z,62.50
2022-09-24T21:01:54.725Z,62.30
2022-09-24T21:04:22.538Z,62.30
2022-09-24T21:06:49.499Z,62.40
2022-09-24T21:09:17.217Z,62.40
2022-09-24T21:11:44.227Z,62.40
2022-09-24T21:14:12.590Z,62.50
2022-09-24T21:16:39.463Z,62.60
2022-09-24T21:19:08.285Z,62.60
2022-09-24T21:21:38.235Z,62.70
2022-09-24T21:24:09.606Z,62.80
2022-09-24T21:26:38.812Z,62.90
2022-09-24T21:29:16.882Z,63.00
2022-09-24T21:31:46.250Z,63.10
2022-09-24T21:34:20.835Z,62.90
2022-09-24T21:36:47.866Z,63.00
2022-09-24T21:39:22.951Z,62.90
2022-09-24T21:41:52.501Z,63.00
2022-09-24T21:44:19.753Z,62.90
2022-09-24T21:46:47.751Z,63.00
2022-09-24T21:49:16.872Z,63.20
2022-09-24T21:51:44.519Z,63.10
2022-09-24T21:54:16.128Z,63.10
2022-09-24T21:56:43.504Z,63.20
2022-09-24T21:59:29.395Z,63.10
2022-09-24T22:01:56.333Z,63.10
2022-09-24T22:04:23.643Z,63.10
2022-09-24T22:06:50.999Z,63.10
2022-09-24T22:09:18.812Z,63.20
2022-09-24T22:11:46.267Z,63.20
2022-09-24T22:14:13.922Z,63.30
2022-09-24T22:16:41.056Z,63.40
2022-09-24T22:19:09.253Z,63.40
2022-09-24T22:21:36.940Z,63.70
2022-09-24T22:24:05.319Z,63.70
2022-09-24T22:26:33.079Z,63.80
2022-09-24T22:29:00.562Z,64.60
2022-09-24T22:31:27.995Z,63.90
2022-09-24T22:34:13.918Z,64.10
2022-09-24T22:36:41.046Z,64.20
2022-09-24T22:39:09.397Z,64.10
2022-09-24T22:41:42.920Z,64.10
2022-09-24T22:44:11.998Z,64.30
2022-09-24T22:46:41.611Z,64.50
2022-09-24T22:49:11.010Z,64.60
2022-09-24T22:51:39.226Z,64.70
2022-09-24T22:54:07.857Z,64.90
2022-09-24T22:56:35.463Z,65.00
2022-09-24T22:59:03.378Z,65.10
2022-09-24T23:01:42.926Z,65.20
2022-09-24T23:04:14.685Z,65.40
2022-09-24T23:06:43.455Z,65.50
2022-09-24T23:09:10.835Z,65.60
2022-09-24T23:11:37.796Z,65.60
2022-09-24T23:14:14.739Z,65.60
2022-09-24T23:16:42.803Z,65.90
2022-09-24T23:19:20.423Z,65.90
2022-09-24T23:21:47.463Z,66.00
2022-09-24T23:24:19.736Z,66.00
2022-09-24T23:26:47.343Z,65.90
2022-09-24T23:29:15.462Z,65.80
2022-09-24T23:31:44.966Z,65.80
2022-09-24T23:34:13.574Z,65.80
2022-09-24T23:36:40.739Z,65.90
2022-09-24T23:39:07.732Z,65.90
2022-09-24T23:41:34.799Z,66.00
2022-09-24T23:44:01.940Z,66.10
2022-09-24T23:46:29.178Z,66.20
2022-09-24T23:48:56.719Z,66.30
2022-09-24T23:51:23.930Z,66.50
2022-09-24T23:53:52.822Z,66.50
2022-09-24T23:56:20.628Z,66.50
2022-09-24T23:58:52.952Z,66.50
